createdAt,value
2022-09-24T00:01:32.303Z,13.00
2022-09-24T00:04:04.932Z,13.00
2022-09-24T00:06:36.107Z,13.00
2022-09-24T00:09:02.994Z,13.00
2022-09-24T00:11:30.241Z,13.00
2022-09-24T00:13:58.461Z,13.00
2022-09-24T00:16:27.562Z,12.90
2022-09-24T00:18:54.882Z,13.00
2022-09-24T00:21:24.104Z,12.90
2022-09-24T00:23:53.698Z,13.00
2022-09-24T00:26:40.231Z,13.00
2022-09-24T00:29:08.175Z,13.00
2022-09-24T00:31:35.114Z,13.00
2022-09-24T00:34:02.145Z,13.00
2022-09-24T00:36:29.502Z,13.00
2022-09-24T00:38:58.103Z,13.00
2022-09-24T00:41:28.613Z,12.90
2022-09-24T00:43:55.555Z,12.90
2022-09-24T00:46:27.934Z,12.90
2022-09-24T00:49:14.029Z,12.90
2022-09-24T00:51:42.670Z,12.90
2022-09-24T00:54:16.589Z,12.80
2022-09-24T00:56:44.612Z,12.90
2022-09-24T00:59:17.455Z,12.90
2022-09-24T01:01:48.898Z,12.90
2022-09-24T01:04:17.837Z,12.80
2022-09-24T01:06:45.247Z,12.90
2022-09-24T01:09:12.310Z,12.80
2022-09-24T01:11:47.397Z,12.90
2022-09-24T01:14:23.316Z,12.80
2022-09-24T01:17:30.015Z,12.80
2022-09-24T01:20:11.930Z,12.80
2022-09-24T01:22:57.571Z,12.80
2022-09-24T01:25:40.829Z,12.80
2022-09-24T01:28:33.705Z,12.80
2022-09-24T01:31:16.108Z,12.80
2022-09-24T01:33:46.283Z,12.80
2022-09-24T01:36:15.499Z,12.80
2022-09-24T01:38:45.418Z,12.70
2022-09-24T01:41:15.941Z,12.80
2022-09-24T01:43:43.875Z,12.70
2022-09-24T01:46:12.972Z,12.70
2022-09-24T01:48:41.065Z,12.80
2022-09-24T01:51:20.416Z,12.80
2022-09-24T01:53:59.184Z,12.70
2022-09-24T01:57:00.639Z,12.70
2022-09-24T01:59:42.128Z,12.70
2022-09-24T02:02:28.221Z,12.70
2022-09-24T02:05:05.381Z,12.70
2022-09-24T02:08:01.170Z,12.70
2022-09-24T02:10:30.572Z,12.70
2022-09-24T02:13:03.914Z,12.70
2022-09-24T02:15:38.584Z,12.70
2022-09-24T02:18:09.807Z,12.70
2022-09-24T02:20:38.758Z,12.70
2022-09-24T02:23:06.673Z,12.70
2022-09-24T02:25:39.408Z,12.60
2022-09-24T02:28:06.549Z,12.60
2022-09-24T02:30:42.050Z,12.60
2022-09-24T02:33:32.854Z,12.60
2022-09-24T02:35:59.762Z,12.60
2022-09-24T02:38:26.648Z,12.60
2022-09-24T02:40:55.348Z,12.60
2022-09-24T02:43:22.384Z,12.60
2022-09-24T02:45:49.128Z,12.60
2022-09-24T02:48:15.892Z,12.60
2022-09-24T02:50:42.711Z,12.50
2022-09-24T02:53:09.628Z,12.50
2022-09-24T02:55:36.480Z,12.50
2022-09-24T02:58:03.278Z,12.50
2022-09-24T03:00:30.031Z,12.50
2022-09-24T03:02:56.840Z,12.60
2022-09-24T03:05:23.588Z,12.50
2022-09-24T03:07:50.398Z,12.50
2022-09-24T03:10:17.297Z,12.50
2022-09-24T03:12:44.093Z,12.40
2022-09-24T03:15:11.236Z,12.40
2022-09-24T03:17:38.090Z,12.40
2022-09-24T03:20:05.300Z,12.20
2022-09-24T03:22:32.188Z,12.40
2022-09-24T03:24:58.943Z,12.40
2022-09-24T03:27:25.730Z,12.30
2022-09-24T03:30:10.823Z,12.20
2022-09-24T03:32:38.527Z,12.30
2022-09-24T03:35:05.629Z,12.30
2022-09-24T03:37:33.413Z,12.30
2022-09-24T03:40:00.212Z,12.30
2022-09-24T03:42:27.018Z,12.20
2022-09-24T03:44:54.518Z,12.30
2022-09-24T03:47:21.256Z,12.20
2022-09-24T03:49:48.031Z,12.20
2022-09-24T03:52:14.763Z,12.20
2022-09-24T03:54:41.452Z,12.20
2022-09-24T03:57:08.423Z,12.10
2022-09-24T03:59:35.191Z,12.30
2022-09-24T04:02:02.072Z,12.30
2022-09-24T04:04:28.901Z,12.30
2022-09-24T04:06:55.614Z,12.30
2022-09-24T04:09:22.594Z,12.30
2022-09-24T04:11:49.609Z,12.20
2022-09-24T04:14:16.431Z,12.30
2022-09-24T04:16:43.187Z,12.30
2022-09-24T04:19:10.039Z,12.20
2022-09-24T04:21:36.911Z,12.20
2022-09-24T04:24:04.648Z,12.20
2022-09-24T04:26:31.472Z,12.20
2022-09-24T04:28:59.316Z,12.20
2022-09-24T04:31:27.349Z,12.20
2022-09-24T04:33:54.336Z,12.10
2022-09-24T04:36:21.106Z,12.20
2022-09-24T04:38:48.064Z,12.10
2022-09-24T04:41:18.041Z,12.10
2022-09-24T04:43:46.754Z,12.10
2022-09-24T04:46:14.060Z,12.10
2022-09-24T04:48:41.105Z,12.10
2022-09-24T04:51:08.807Z,12.10
2022-09-24T04:53:37.266Z,12.10
2022-09-24T04:56:05.524Z,12.10
2022-09-24T04:58:32.283Z,12.10
2022-09-24T05:01:03.959Z,12.10
2022-09-24T05:03:30.967Z,12.10
2022-09-24T05:05:57.729Z,12.10
2022-09-24T05:08:24.541Z,12.10
2022-09-24T05:10:54.111Z,12.10
2022-09-24T05:13:21.856Z,12.00
2022-09-24T05:15:48.709Z,12.00
2022-09-24T05:18:15.800Z,12.00
2022-09-24T05:20:43.118Z,12.00
2022-09-24T05:23:09.972Z,12.10
2022-09-24T05:25:59.869Z,12.10
2022-09-24T05:28:26.599Z,12.00
2022-09-24T05:30:57.662Z,12.00
2022-09-24T05:33:24.505Z,12.00
2022-09-24T05:35:58.008Z,12.00
2022-09-24T05:38:25.033Z,12.00
2022-09-24T05:40:52.219Z,12.00
2022-09-24T05:43:22.236Z,12.00
2022-09-24T05:45:50.806Z,12.10
2022-09-24T05:48:17.849Z,12.10
2022-09-24T05:50:44.662Z,12.10
2022-09-24T05:53:11.449Z,12.10
2022-09-24T05:55:38.386Z,12.10
2022-09-24T05:58:07.406Z,12.10
2022-09-24T06:00:36.162Z,12.10
2022-09-24T06:03:11.109Z,12.10
2022-09-24T06:05:38.239Z,12.10
2022-09-24T06:08:05.890Z,12.10
2022-09-24T06:10:33.234Z,12.10
2022-09-24T06:13:00.045Z,12.10
2022-09-24T06:15:27.469Z,12.10
2022-09-24T06:17:55.433Z,12.20
2022-09-24T06:20:23.083Z,12.20
2022-09-24T06:22:50.633Z,12.30
2022-09-24T06:25:17.524Z,12.30
2022-09-24T06:27:44.315Z,12.30
2022-09-24T06:30:11.917Z,12.30
2022-09-24T06:32:38.817Z,12.30
2022-09-24T06:35:06.733Z,12.40
2022-09-24T06:37:34.192Z,12.30
2022-09-24T06:40:01.333Z,12.30
2022-09-24T06:42:28.537Z,12.30
2022-09-24T06:44:55.670Z,12.30
2022-09-24T06:47:24.212Z,12.40
2022-09-24T06:49:51.147Z,12.40
2022-09-24T06:52:18.095Z,12.40
2022-09-24T06:54:45.028Z,12.40
2022-09-24T06:57:12.371Z,12.40
2022-09-24T06:59:39.470Z,12.40
2022-09-24T07:02:06.543Z,12.50
2022-09-24T07:04:33.440Z,12.50
2022-09-24T07:07:18.783Z,12.50
2022-09-24T07:09:45.602Z,12.40
2022-09-24T07:12:12.505Z,12.60
2022-09-24T07:14:39.486Z,12.60
2022-09-24T07:17:06.401Z,12.70
2022-09-24T07:19:33.186Z,12.80
2022-09-24T07:21:59.998Z,12.80
2022-09-24T07:24:26.825Z,12.80
2022-09-24T07:26:54.506Z,12.90
2022-09-24T07:29:21.530Z,13.00
2022-09-24T07:31:48.638Z,13.00
2022-09-24T07:34:15.805Z,13.10
2022-09-24T07:36:42.722Z,13.10
2022-09-24T07:39:09.894Z,13.00
2022-09-24T07:41:41.917Z,13.00
2022-09-24T07:44:10.066Z,13.00
2022-09-24T07:46:37.342Z,13.00
2022-09-24T07:49:04.708Z,13.00
2022-09-24T07:51:31.799Z,12.90
2022-09-24T07:53:58.753Z,12.80
2022-09-24T07:56:25.775Z,12.90
2022-09-24T07:58:53.727Z,12.90
2022-09-24T08:01:20.853Z,13.00
2022-09-24T08:03:48.006Z,13.00
2022-09-24T08:06:15.036Z,13.00
2022-09-24T08:08:43.511Z,13.10
2022-09-24T08:11:15.424Z,13.10
2022-09-24T08:13:42.263Z,13.10
2022-09-24T08:16:09.358Z,13.10
2022-09-24T08:18:36.299Z,13.10
2022-09-24T08:21:09.543Z,13.10
2022-09-24T08:23:36.721Z,13.20
2022-09-24T08:26:04.606Z,13.20
2022-09-24T08:28:32.083Z,13.30
2022-09-24T08:31:00.700Z,13.40
2022-09-24T08:33:32.538Z,13.40
2022-09-24T08:36:00.649Z,13.40
2022-09-24T08:38:27.634Z,13.40
2022-09-24T08:41:13.412Z,13.40
2022-09-24T08:44:01.720Z,13.50
2022-09-24T08:46:55.305Z,13.50
2022-09-24T08:49:47.033Z,13.50
2022-09-24T08:52:35.589Z,13.50
2022-09-24T08:55:26.379Z,13.50
2022-09-24T08:58:16.686Z,13.50
2022-09-24T09:01:06.434Z,13.50
2022-09-24T09:03:39.568Z,13.50
2022-09-24T09:06:44.195Z,13.50
2022-09-24T09:09:20.486Z,13.60
2022-09-24T09:11:51.526Z,13.70
2022-09-24T09:14:30.505Z,13.80
2022-09-24T09:17:07.010Z,13.90
2022-09-24T09:19:35.379Z,14.00
2022-09-24T09:22:16.775Z,14.00
2022-09-24T09:24:49.952Z,14.00
2022-09-24T09:27:18.587Z,14.10
2022-09-24T09:29:49.039Z,14.20
2022-09-24T09:32:34.843Z,14.30
2022-09-24T09:35:34.366Z,14.30
2022-09-24T09:38:29.791Z,14.30
2022-09-24T09:41:03.010Z,14.30
2022-09-24T09:43:30.222Z,14.40
2022-09-24T09:46:38.805Z,14.50
2022-09-24T09:49:07.821Z,14.50
2022-09-24T09:51:42.147Z,14.70
2022-09-24T09:54:09.580Z,14.80
2022-09-24T09:56:45.760Z,14.80
2022-09-24T09:59:12.903Z,14.90
2022-09-24T10:01:42.367Z,15.00
2022-09-24T10:04:39.722Z,15.10
2022-09-24T10:07:06.625Z,15.10
2022-09-24T10:09:34.020Z,15.20
2022-09-24T10:12:16.557Z,15.20
2022-09-24T10:14:44.552Z,15.20
2022-09-24T10:17:19.571Z,15.20
2022-09-24T10:19:48.004Z,15.30
2022-09-24T10:22:22.238Z,15.10
2022-09-24T10:24:50.282Z,15.20
2022-09-24T10:27:32.321Z,15.10
2022-09-24T10:30:19.075Z,15.20
2022-09-24T10:32:48.815Z,15.20
2022-09-24T10:35:28.390Z,15.20
2022-09-24T10:37:58.927Z,15.20
2022-09-24T10:40:39.905Z,15.30
2022-09-24T10:43:15.635Z,15.20
2022-09-24T10:45:46.347Z,15.30
2022-09-24T10:48:18.885Z,15.30
2022-09-24T10:51:13.350Z,15.40
2022-09-24T10:53:58.995Z,15.40
2022-09-24T10:56:46.402Z,15.40
2022-09-24T10:59:39.333Z,15.30
2022-09-24T11:02:29.186Z,15.30
2022-09-24T11:05:12.725Z,15.20
2022-09-24T11:08:31.847Z,15.20
2022-09-24T11:11:11.627Z,15.20
2022-09-24T11:13:51.608Z,15.20
2022-09-24T11:16:18.776Z,15.20
2022-09-24T11:18:51.577Z,15.20
2022-09-24T11:21:57.698Z,15.20
2022-09-24T11:24:37.171Z,15.10
2022-09-24T11:27:31.741Z,15.20
2022-09-24T11:30:10.871Z,15.20
2022-09-24T11:32:56.309Z,15.10
2022-09-24T11:35:29.372Z,15.10
2022-09-24T11:38:09.608Z,15.10
2022-09-24T11:40:48.883Z,15.00
2022-09-24T11:43:41.093Z,15.00
2022-09-24T11:46:27.441Z,15.00
2022-09-24T11:49:28.821Z,14.90
2022-09-24T11:52:30.283Z,14.90
2022-09-24T11:55:55.760Z,15.00
2022-09-24T11:58:34.510Z,15.10
2022-09-24T12:01:26.160Z,15.10
2022-09-24T12:04:22.238Z,15.20
2022-09-24T12:07:10.486Z,15.20
2022-09-24T12:09:49.712Z,15.30
2022-09-24T12:12:27.848Z,15.30
2022-09-24T12:15:19.428Z,15.30
2022-09-24T12:17:53.067Z,15.30
2022-09-24T12:20:30.113Z,15.30
2022-09-24T12:23:08.078Z,15.40
2022-09-24T12:25:42.707Z,15.50
2022-09-24T12:28:35.871Z,15.50
2022-09-24T12:31:28.784Z,15.50
2022-09-24T12:34:20.102Z,15.40
2022-09-24T12:36:59.924Z,15.30
2022-09-24T12:39:33.749Z,15.30
2022-09-24T12:42:08.595Z,15.30
2022-09-24T12:45:10.052Z,15.40
2022-09-24T12:47:47.563Z,15.40
2022-09-24T12:50:40.538Z,15.60
2022-09-24T12:53:45.926Z,15.40
2022-09-24T12:56:13.159Z,15.50
2022-09-24T12:58:45.393Z,15.40
2022-09-24T13:01:30.732Z,15.50
2022-09-24T13:04:06.175Z,15.60
2022-09-24T13:06:36.520Z,15.50
2022-09-24T13:09:25.789Z,15.50
2022-09-24T13:12:11.627Z,15.50
2022-09-24T13:14:41.297Z,15.50
2022-09-24T13:17:08.532Z,15.50
2022-09-24T13:19:45.615Z,15.50
2022-09-24T13:22:26.029Z,15.40
2022-09-24T13:25:09.942Z,15.40
2022-09-24T13:27:40.334Z,15.30
2022-09-24T13:30:19.266Z,15.40
2022-09-24T13:33:04.923Z,15.40
2022-09-24T13:35:47.339Z,15.50
2022-09-24T13:38:39.560Z,15.40
2022-09-24T13:41:21.066Z,15.40
2022-09-24T13:43:59.963Z,15.30
2022-09-24T13:46:28.369Z,15.30
2022-09-24T13:49:05.456Z,15.30
2022-09-24T13:51:39.407Z,15.30
2022-09-24T13:54:18.743Z,15.30
2022-09-24T13:57:02.893Z,15.30
2022-09-24T13:59:33.037Z,15.30
2022-09-24T14:02:00.143Z,15.30
2022-09-24T14:04:27.706Z,15.30
2022-09-24T14:06:57.639Z,15.30
2022-09-24T14:09:34.791Z,15.40
2022-09-24T14:12:15.336Z,15.50
2022-09-24T14:15:00.432Z,15.50
2022-09-24T14:17:27.570Z,15.50
2022-09-24T14:19:57.950Z,15.50
2022-09-24T14:22:30.725Z,15.40
2022-09-24T14:25:02.475Z,15.40
2022-09-24T14:27:32.657Z,15.40
2022-09-24T14:30:09.151Z,15.30
2022-09-24T14:32:39.546Z,15.30
2022-09-24T14:35:11.396Z,15.30
2022-09-24T14:37:41.436Z,15.30
2022-09-24T14:40:15.613Z,15.20
2022-09-24T14:43:04.263Z,15.10
2022-09-24T14:45:36.385Z,15.10
2022-09-24T14:48:25.820Z,15.00
2022-09-24T14:50:53.111Z,15.00
2022-09-24T14:53:37.130Z,15.00
2022-09-24T14:56:29.830Z,15.00
2022-09-24T14:58:56.861Z,15.00
2022-09-24T15:01:30.883Z,15.00
2022-09-24T15:04:07.803Z,15.10
2022-09-24T15:06:37.393Z,15.10
2022-09-24T15:09:21.583Z,15.10
2022-09-24T15:11:48.875Z,15.10
2022-09-24T15:14:20.418Z,15.10
2022-09-24T15:16:47.940Z,15.10
2022-09-24T15:19:27.289Z,15.10
2022-09-24T15:21:57.185Z,15.20
2022-09-24T15:24:25.370Z,15.20
2022-09-24T15:27:32.252Z,15.20
2022-09-24T15:30:01.888Z,15.20
2022-09-24T15:32:31.496Z,15.20
2022-09-24T15:34:58.674Z,15.20
2022-09-24T15:37:28.711Z,15.20
2022-09-24T15:40:05.686Z,15.10
2022-09-24T15:42:32.615Z,15.00
2022-09-24T15:44:59.485Z,15.00
2022-09-24T15:47:26.405Z,15.00
2022-09-24T15:49:53.419Z,15.00
2022-09-24T15:52:27.237Z,14.90
2022-09-24T15:55:00.778Z,14.90
2022-09-24T15:57:27.828Z,14.90
2022-09-24T15:59:55.429Z,14.90
2022-09-24T16:02:33.470Z,14.80
2022-09-24T16:05:03.813Z,14.80
2022-09-24T16:07:32.716Z,14.80
2022-09-24T16:09:59.784Z,14.70
2022-09-24T16:12:28.406Z,14.60
2022-09-24T16:14:59.324Z,14.60
2022-09-24T16:17:27.230Z,14.60
2022-09-24T16:19:54.486Z,14.50
2022-09-24T16:22:21.839Z,14.50
2022-09-24T16:24:49.007Z,14.50
2022-09-24T16:27:19.117Z,14.50
2022-09-24T16:29:46.071Z,14.50
2022-09-24T16:32:14.076Z,14.40
2022-09-24T16:34:41.554Z,14.40
2022-09-24T16:37:09.452Z,14.40
2022-09-24T16:39:36.807Z,14.40
2022-09-24T16:42:04.075Z,14.30
2022-09-24T16:44:31.101Z,14.30
2022-09-24T16:46:58.171Z,14.20
2022-09-24T16:49:27.766Z,14.20
2022-09-24T16:51:56.016Z,14.20
2022-09-24T16:54:23.259Z,14.20
2022-09-24T16:56:52.508Z,14.20
2022-09-24T16:59:19.863Z,14.20
2022-09-24T17:01:47.096Z,14.20
2022-09-24T17:04:14.266Z,14.10
2022-09-24T17:06:44.589Z,14.10
2022-09-24T17:09:30.385Z,14.10
2022-09-24T17:11:57.540Z,14.10
2022-09-24T17:14:27.715Z,14.10
2022-09-24T17:16:54.947Z,14.10
2022-09-24T17:19:22.005Z,14.00
2022-09-24T17:21:52.401Z,14.00
2022-09-24T17:24:22.076Z,14.00
2022-09-24T17:26:50.110Z,14.00
2022-09-24T17:29:20.779Z,14.00
2022-09-24T17:31:49.190Z,13.90
2022-09-24T17:34:16.450Z,13.90
2022-09-24T17:36:43.650Z,13.90
2022-09-24T17:39:13.820Z,13.90
2022-09-24T17:41:41.662Z,13.80
2022-09-24T17:44:10.866Z,13.80
2022-09-24T17:46:38.269Z,13.80
2022-09-24T17:49:06.097Z,13.80
2022-09-24T17:51:36.295Z,13.80
2022-09-24T17:54:12.759Z,13.80
2022-09-24T17:56:40.669Z,13.80
2022-09-24T17:59:10.133Z,13.70
2022-09-24T18:01:39.380Z,13.70
2022-09-24T18:04:10.393Z,13.80
2022-09-24T18:06:39.508Z,13.70
2022-09-24T18:09:07.650Z,13.70
2022-09-24T18:11:51.687Z,13.70
2022-09-24T18:14:21.416Z,13.70
2022-09-24T18:16:49.534Z,13.70
2022-09-24T18:19:17.712Z,13.70
2022-09-24T18:21:46.273Z,13.70
2022-09-24T18:24:14.704Z,13.60
2022-09-24T18:26:42.015Z,13.60
2022-09-24T18:29:16.013Z,13.60
2022-09-24T18:31:43.950Z,13.60
2022-09-24T18:34:13.253Z,13.60
2022-09-24T18:36:42.020Z,13.60
2022-09-24T18:39:13.328Z,13.60
2022-09-24T18:41:42.446Z,13.60
2022-09-24T18:44:10.446Z,13.60
2022-09-24T18:46:37.916Z,13.60
2022-09-24T18:49:06.619Z,13.60
2022-09-24T18:51:37.325Z,13.60
2022-09-24T18:54:12.549Z,13.60
2022-09-24T18:56:40.396Z,13.60
2022-09-24T18:59:11.517Z,13.50
2022-09-24T19:01:39.995Z,13.50
2022-09-24T19:04:11.111Z,13.40
2022-09-24T19:06:40.996Z,13.40
2022-09-24T19:09:09.294Z,13.40
2022-09-24T19:11:37.132Z,13.30
2022-09-24T19:14:04.986Z,13.30
2022-09-24T19:16:32.590Z,13.30
2022-09-24T19:19:01.260Z,13.30
2022-09-24T19:21:28.837Z,13.30
2022-09-24T19:23:57.684Z,13.30
2022-09-24T19:26:30.604Z,13.30
2022-09-24T19:28:58.977Z,13.30
2022-09-24T19:31:32.182Z,13.20
2022-09-24T19:34:03.593Z,13.20
2022-09-24T19:36:37.368Z,13.10
2022-09-24T19:39:10.133Z,13.10
2022-09-24T19:41:37.667Z,13.10
2022-09-24T19:44:08.896Z,13.20
2022-09-24T19:46:38.840Z,13.10
2022-09-24T19:49:06.979Z,13.10
2022-09-24T19:51:35.734Z,13.10
2022-09-24T19:54:07.646Z,13.10
2022-09-24T19:56:35.627Z,13.10
2022-09-24T19:59:03.598Z,13.10
2022-09-24T20:01:32.478Z,13.10
2022-09-24T20:04:02.815Z,13.10
2022-09-24T20:06:31.796Z,13.10
2022-09-24T20:08:59.505Z,13.10
2022-09-24T20:11:27.440Z,13.10
2022-09-24T20:13:56.430Z,13.00
2022-09-24T20:16:26.548Z,13.10
2022-09-24T20:18:58.044Z,13.00
2022-09-24T20:21:32.220Z,13.00
2022-09-24T20:23:59.671Z,13.00
2022-09-24T20:26:46.098Z,13.00
2022-09-24T20:29:14.454Z,13.00
2022-09-24T20:31:47.685Z,13.00
2022-09-24T20:34:14.641Z,12.90
2022-09-24T20:36:41.763Z,12.90
2022-09-24T20:39:08.999Z,12.90
2022-09-24T20:41:38.609Z,12.90
2022-09-24T20:44:05.709Z,12.90
2022-09-24T20:46:32.905Z,12.90
2022-09-24T20:49:00.962Z,12.90
2022-09-24T20:51:29.901Z,12.90
2022-09-24T20:53:59.492Z,12.90
2022-09-24T20:56:27.155Z,12.90
2022-09-24T20:58:54.378Z,12.90
2022-09-24T21:01:22.560Z,12.90
2022-09-24T21:03:50.363Z,12.80
2022-09-24T21:06:18.539Z,12.90
2022-09-24T21:08:47.294Z,12.90
2022-09-24T21:11:29.025Z,12.90
2022-09-24T21:14:01.082Z,12.80
2022-09-24T21:16:31.197Z,12.80
2022-09-24T21:19:00.585Z,12.80
2022-09-24T21:21:30.252Z,12.80
2022-09-24T21:24:00.009Z,12.80
2022-09-24T21:26:28.502Z,12.80
2022-09-24T21:29:17.531Z,12.80
2022-09-24T21:31:46.476Z,12.80
2022-09-24T21:34:16.313Z,12.90
2022-09-24T21:36:45.870Z,12.80
2022-09-24T21:39:15.289Z,12.90
2022-09-24T21:41:43.502Z,12.80
2022-09-24T21:44:14.324Z,12.80
2022-09-24T21:46:43.983Z,12.80
2022-09-24T21:49:12.410Z,12.80
2022-09-24T21:51:41.262Z,12.70
2022-09-24T21:54:12.599Z,12.70
2022-09-24T21:56:39.871Z,12.70
2022-09-24T21:59:27.048Z,12.70
2022-09-24T22:01:55.400Z,12.70
2022-09-24T22:04:22.673Z,12.60
2022-09-24T22:06:51.252Z,12.60
2022-09-24T22:09:19.538Z,12.60
2022-09-24T22:11:47.317Z,12.60
2022-09-24T22:14:14.955Z,12.60
2022-09-24T22:16:42.388Z,12.60
2022-09-24T22:19:26.974Z,12.60
2022-09-24T22:21:54.016Z,12.60
2022-09-24T22:24:23.649Z,12.60
2022-09-24T22:26:50.779Z,12.60
2022-09-24T22:31:59.175Z,12.60
2022-09-24T22:34:44.559Z,12.60
2022-09-24T22:37:11.602Z,12.60
2022-09-24T22:39:38.650Z,12.60
2022-09-24T22:42:06.361Z,12.60
2022-09-24T22:44:33.536Z,12.60
2022-09-24T22:47:00.491Z,12.50
2022-09-24T22:49:27.569Z,12.50
2022-09-24T22:51:54.447Z,12.50
2022-09-24T22:54:21.374Z,12.50
2022-09-24T22:56:48.334Z,12.50
2022-09-24T22:59:15.242Z,12.50
2022-09-24T23:01:44.190Z,12.50
2022-09-24T23:04:15.204Z,12.50
2022-09-24T23:06:43.723Z,12.50
2022-09-24T23:09:11.403Z,12.50
2022-09-24T23:11:39.210Z,12.50
2022-09-24T23:14:10.245Z,12.50
2022-09-24T23:16:38.322Z,12.50
2022-09-24T23:19:07.989Z,12.40
2022-09-24T23:21:35.296Z,12.40
2022-09-24T23:24:04.914Z,12.40
2022-09-24T23:26:32.091Z,12.40
2022-09-24T23:29:02.110Z,12.40
2022-09-24T23:31:31.986Z,12.40
2022-09-24T23:34:01.214Z,12.40
2022-09-24T23:36:31.206Z,12.40
2022-09-24T23:38:59.804Z,12.40
2022-09-24T23:41:28.924Z,12.40
2022-09-24T23:43:56.026Z,12.40
2022-09-24T23:46:22.983Z,12.40
2022-09-24T23:48:49.930Z,12.40
2022-09-24T23:51:16.800Z,12.40
2022-09-24T23:53:43.717Z,12.40
2022-09-24T23:56:12.263Z,12.40
2022-09-24T23:58:39.368Z,12.40
